sensor_id;sensor_type;location;lat;lon;timestamp;temperature;humidity
34147;DHT22;20423;49.448;9.056;2024-03-25T00:00:32;3.00;99.90
34147;DHT22;20423;49.448;9.056;2024-03-25T00:02:58;3.00;99.90
34147;DHT22;20423;49.448;9.056;2024-03-25T00:05:24;3.00;99.90
34147;DHT22;20423;49.448;9.056;2024-03-25T00:07:51;3.00;99.90
34147;DHT22;20423;49.448;9.056;2024-03-25T00:10:24;3.00;99.90
34147;DHT22;20423;49.448;9.056;2024-03-25T00:12:49;3.00;99.90
34147;DHT22;20423;49.448;9.056;2024-03-25T00:15:20;3.00;99.90
34147;DHT22;20423;49.448;9.056;2024-03-25T00:17:50;3.00;99.90
34147;DHT22;20423;49.448;9.056;2024-03-25T00:20:16;2.90;99.90
34147;DHT22;20423;49.448;9.056;2024-03-25T00:22:42;2.90;99.90
34147;DHT22;20423;49.448;9.056;2024-03-25T00:25:08;2.90;99.90
34147;DHT22;20423;49.448;9.056;2024-03-25T00:27:34;2.90;99.90
34147;DHT22;20423;49.448;9.056;2024-03-25T00:30:00;2.90;99.90
34147;DHT22;20423;49.448;9.056;2024-03-25T00:32:25;2.90;99.90
34147;DHT22;20423;49.448;9.056;2024-03-25T00:34:51;2.90;99.90
34147;DHT22;20423;49.448;9.056;2024-03-25T00:40:38;2.90;99.90
34147;DHT22;20423;49.448;9.056;2024-03-25T00:43:04;2.80;99.90
34147;DHT22;20423;49.448;9.056;2024-03-25T00:45:30;2.90;99.90
34147;DHT22;20423;49.448;9.056;2024-03-25T00:47:59;2.90;99.90
34147;DHT22;20423;49.448;9.056;2024-03-25T00:50:25;2.80;99.90
34147;DHT22;20423;49.448;9.056;2024-03-25T00:52:51;2.80;99.90
34147;DHT22;20423;49.448;9.056;2024-03-25T00:55:17;2.70;99.90
34147;DHT22;20423;49.448;9.056;2024-03-25T00:57:43;2.70;99.90
34147;DHT22;20423;49.448;9.056;2024-03-25T01:00:09;2.60;99.90
34147;DHT22;20423;49.448;9.056;2024-03-25T01:02:35;2.60;99.90
34147;DHT22;20423;49.448;9.056;2024-03-25T01:05:01;2.60;99.90
34147;DHT22;20423;49.448;9.056;2024-03-25T01:07:28;2.60;99.90
34147;DHT22;20423;49.448;9.056;2024-03-25T01:09:53;2.60;99.90
34147;DHT22;20423;49.448;9.056;2024-03-25T01:12:19;2.60;99.90
34147;DHT22;20423;49.448;9.056;2024-03-25T01:14:45;2.70;99.90
34147;DHT22;20423;49.448;9.056;2024-03-25T01:17:10;2.60;99.90
34147;DHT22;20423;49.448;9.056;2024-03-25T01:19:36;2.70;99.90
34147;DHT22;20423;49.448;9.056;2024-03-25T01:22:02;2.60;99.90
34147;DHT22;20423;49.448;9.056;2024-03-25T01:24:28;2.60;99.90
34147;DHT22;20423;49.448;9.056;2024-03-25T01:26:53;2.50;99.90
34147;DHT22;20423;49.448;9.056;2024-03-25T01:29:19;2.50;99.90
34147;DHT22;20423;49.448;9.056;2024-03-25T01:31:45;2.50;99.90
34147;DHT22;20423;49.448;9.056;2024-03-25T01:34:10;2.50;99.90
34147;DHT22;20423;49.448;9.056;2024-03-25T01:36:36;2.50;99.90
34147;DHT22;20423;49.448;9.056;2024-03-25T01:39:02;2.50;99.90
34147;DHT22;20423;49.448;9.056;2024-03-25T01:41:30;2.40;99.90
34147;DHT22;20423;49.448;9.056;2024-03-25T01:43:56;2.40;99.90
34147;DHT22;20423;49.448;9.056;2024-03-25T01:46:22;2.50;99.90
34147;DHT22;20423;49.448;9.056;2024-03-25T01:48:49;2.50;99.90
34147;DHT22;20423;49.448;9.056;2024-03-25T01:51:17;2.50;99.90
34147;DHT22;20423;49.448;9.056;2024-03-25T01:53:43;2.40;99.90
34147;DHT22;20423;49.448;9.056;2024-03-25T01:56:31;2.40;99.90
34147;DHT22;20423;49.448;9.056;2024-03-25T02:05:59;2.50;99.90
34147;DHT22;20423;49.448;9.056;2024-03-25T02:08:26;2.50;99.90
34147;DHT22;20423;49.448;9.056;2024-03-25T02:10:56;2.50;99.90
34147;DHT22;20423;49.448;9.056;2024-03-25T02:13:23;2.50;99.90
34147;DHT22;20423;49.448;9.056;2024-03-25T02:15:49;2.50;99.90
34147;DHT22;20423;49.448;9.056;2024-03-25T02:18:17;2.50;99.90
34147;DHT22;20423;49.448;9.056;2024-03-25T02:20:43;2.50;99.90
34147;DHT22;20423;49.448;9.056;2024-03-25T02:23:11;2.40;99.90
34147;DHT22;20423;49.448;9.056;2024-03-25T02:25:39;2.40;99.90
34147;DHT22;20423;49.448;9.056;2024-03-25T02:28:06;2.40;99.90
34147;DHT22;20423;49.448;9.056;2024-03-25T02:30:31;2.30;99.90
34147;DHT22;20423;49.448;9.056;2024-03-25T02:32:57;2.30;99.90
34147;DHT22;20423;49.448;9.056;2024-03-25T02:35:32;2.30;99.90
34147;DHT22;20423;49.448;9.056;2024-03-25T02:37:58;2.30;99.90
34147;DHT22;20423;49.448;9.056;2024-03-25T02:40:24;2.30;99.90
34147;DHT22;20423;49.448;9.056;2024-03-25T02:42:50;2.30;99.90
34147;DHT22;20423;49.448;9.056;2024-03-25T02:45:16;2.20;99.90
34147;DHT22;20423;49.448;9.056;2024-03-25T02:47:41;2.00;99.90
34147;DHT22;20423;49.448;9.056;2024-03-25T02:50:07;2.00;99.90
34147;DHT22;20423;49.448;9.056;2024-03-25T02:52:33;2.00;99.90
34147;DHT22;20423;49.448;9.056;2024-03-25T02:54:59;1.90;99.90
34147;DHT22;20423;49.448;9.056;2024-03-25T02:57:27;1.80;99.90
34147;DHT22;20423;49.448;9.056;2024-03-25T02:59:53;1.80;99.90
34147;DHT22;20423;49.448;9.056;2024-03-25T03:02:19;1.70;99.90
34147;DHT22;20423;49.448;9.056;2024-03-25T03:04:44;1.70;99.90
34147;DHT22;20423;49.448;9.056;2024-03-25T03:07:10;1.60;99.90
34147;DHT22;20423;49.448;9.056;2024-03-25T03:09:36;1.50;99.90
34147;DHT22;20423;49.448;9.056;2024-03-25T03:12:02;1.50;99.90
34147;DHT22;20423;49.448;9.056;2024-03-25T03:14:27;1.50;99.90
34147;DHT22;20423;49.448;9.056;2024-03-25T03:16:53;1.40;99.90
34147;DHT22;20423;49.448;9.056;2024-03-25T03:19:21;1.40;99.90
34147;DHT22;20423;49.448;9.056;2024-03-25T03:21:46;1.30;99.90
34147;DHT22;20423;49.448;9.056;2024-03-25T03:24:12;1.20;99.90
34147;DHT22;20423;49.448;9.056;2024-03-25T03:26:38;1.20;99.90
34147;DHT22;20423;49.448;9.056;2024-03-25T03:29:04;1.10;99.90
34147;DHT22;20423;49.448;9.056;2024-03-25T03:31:30;1.10;99.90
34147;DHT22;20423;49.448;9.056;2024-03-25T03:33:55;1.10;99.90
34147;DHT22;20423;49.448;9.056;2024-03-25T03:36:22;1.20;99.90
34147;DHT22;20423;49.448;9.056;2024-03-25T03:38:50;1.20;99.90
34147;DHT22;20423;49.448;9.056;2024-03-25T03:41:16;1.30;99.90
34147;DHT22;20423;49.448;9.056;2024-03-25T03:43:41;1.30;99.90
34147;DHT22;20423;49.448;9.056;2024-03-25T03:46:07;1.30;99.90
34147;DHT22;20423;49.448;9.056;2024-03-25T03:48:32;1.40;99.90
34147;DHT22;20423;49.448;9.056;2024-03-25T03:50:58;1.30;99.90
34147;DHT22;20423;49.448;9.056;2024-03-25T03:53:24;1.20;99.90
34147;DHT22;20423;49.448;9.056;2024-03-25T03:55:56;1.20;99.90
34147;DHT22;20423;49.448;9.056;2024-03-25T03:58:23;1.20;99.90
34147;DHT22;20423;49.448;9.056;2024-03-25T04:00:49;1.10;99.90
34147;DHT22;20423;49.448;9.056;2024-03-25T04:03:15;1.20;99.90
34147;DHT22;20423;49.448;9.056;2024-03-25T04:05:41;1.10;99.90
34147;DHT22;20423;49.448;9.056;2024-03-25T04:08:06;1.10;99.90
34147;DHT22;20423;49.448;9.056;2024-03-25T04:10:33;1.00;99.90
34147;DHT22;20423;49.448;9.056;2024-03-25T04:13:00;1.00;99.90
34147;DHT22;20423;49.448;9.056;2024-03-25T04:15:26;1.10;99.90
34147;DHT22;20423;49.448;9.056;2024-03-25T04:17:52;1.10;99.90
34147;DHT22;20423;49.448;9.056;2024-03-25T04:20:18;1.10;99.90
34147;DHT22;20423;49.448;9.056;2024-03-25T04:22:45;1.00;99.90
34147;DHT22;20423;49.448;9.056;2024-03-25T04:25:12;1.00;99.90
34147;DHT22;20423;49.448;9.056;2024-03-25T04:27:41;1.10;99.90
34147;DHT22;20423;49.448;9.056;2024-03-25T04:30:08;1.10;99.90
34147;DHT22;20423;49.448;9.056;2024-03-25T04:32:34;1.20;99.90
34147;DHT22;20423;49.448;9.056;2024-03-25T04:35:01;1.30;99.90
34147;DHT22;20423;49.448;9.056;2024-03-25T04:37:27;1.30;99.90
34147;DHT22;20423;49.448;9.056;2024-03-25T04:39:56;1.30;99.90
34147;DHT22;20423;49.448;9.056;2024-03-25T04:42:22;1.40;99.90
34147;DHT22;20423;49.448;9.056;2024-03-25T04:44:49;1.40;99.90
34147;DHT22;20423;49.448;9.056;2024-03-25T04:47:16;1.30;99.90
34147;DHT22;20423;49.448;9.056;2024-03-25T04:49:42;1.30;99.90
34147;DHT22;20423;49.448;9.056;2024-03-25T04:52:07;1.30;99.90
34147;DHT22;20423;49.448;9.056;2024-03-25T04:54:33;1.30;99.90
34147;DHT22;20423;49.448;9.056;2024-03-25T04:56:59;1.30;99.90
34147;DHT22;20423;49.448;9.056;2024-03-25T04:59:28;1.50;99.90
34147;DHT22;20423;49.448;9.056;2024-03-25T05:01:54;1.60;99.90
34147;DHT22;20423;49.448;9.056;2024-03-25T05:04:20;1.60;99.90
34147;DHT22;20423;49.448;9.056;2024-03-25T05:06:46;1.60;99.90
34147;DHT22;20423;49.448;9.056;2024-03-25T05:09:11;1.60;99.90
34147;DHT22;20423;49.448;9.056;2024-03-25T05:11:37;1.60;99.90
34147;DHT22;20423;49.448;9.056;2024-03-25T05:14:03;1.60;99.90
34147;DHT22;20423;49.448;9.056;2024-03-25T05:16:29;1.70;99.90
34147;DHT22;20423;49.448;9.056;2024-03-25T05:18:55;1.70;99.90
34147;DHT22;20423;49.448;9.056;2024-03-25T05:21:20;1.70;99.90
34147;DHT22;20423;49.448;9.056;2024-03-25T05:23:46;1.80;99.90
34147;DHT22;20423;49.448;9.056;2024-03-25T05:26:12;1.80;99.90
34147;DHT22;20423;49.448;9.056;2024-03-25T05:28:37;1.80;99.90
34147;DHT22;20423;49.448;9.056;2024-03-25T05:31:10;1.90;99.90
34147;DHT22;20423;49.448;9.056;2024-03-25T05:33:36;1.90;99.90
34147;DHT22;20423;49.448;9.056;2024-03-25T05:36:03;1.90;99.90
34147;DHT22;20423;49.448;9.056;2024-03-25T05:38:29;1.80;99.90
34147;DHT22;20423;49.448;9.056;2024-03-25T05:40:55;1.80;99.90
34147;DHT22;20423;49.448;9.056;2024-03-25T05:43:21;1.80;99.90
34147;DHT22;20423;49.448;9.056;2024-03-25T05:45:53;1.80;99.90
34147;DHT22;20423;49.448;9.056;2024-03-25T05:48:20;1.80;99.90
34147;DHT22;20423;49.448;9.056;2024-03-25T05:50:46;1.80;99.90
34147;DHT22;20423;49.448;9.056;2024-03-25T05:53:12;1.80;99.90
34147;DHT22;20423;49.448;9.056;2024-03-25T05:55:37;1.90;99.90
34147;DHT22;20423;49.448;9.056;2024-03-25T05:58:04;2.00;99.90
34147;DHT22;20423;49.448;9.056;2024-03-25T06:00:30;1.90;99.90
34147;DHT22;20423;49.448;9.056;2024-03-25T06:03:29;1.90;99.90
34147;DHT22;20423;49.448;9.056;2024-03-25T06:05:56;1.90;99.90
34147;DHT22;20423;49.448;9.056;2024-03-25T06:08:21;2.10;99.90
34147;DHT22;20423;49.448;9.056;2024-03-25T06:10:51;2.10;99.90
34147;DHT22;20423;49.448;9.056;2024-03-25T06:13:17;2.20;99.90
34147;DHT22;20423;49.448;9.056;2024-03-25T06:15:46;2.20;99.90
34147;DHT22;20423;49.448;9.056;2024-03-25T06:18:12;2.30;99.90
34147;DHT22;20423;49.448;9.056;2024-03-25T06:20:39;2.40;99.90
34147;DHT22;20423;49.448;9.056;2024-03-25T06:23:04;2.40;99.90
34147;DHT22;20423;49.448;9.056;2024-03-25T06:25:30;2.20;99.90
34147;DHT22;20423;49.448;9.056;2024-03-25T06:27:56;2.00;99.90
34147;DHT22;20423;49.448;9.056;2024-03-25T06:30:22;2.00;99.90
34147;DHT22;20423;49.448;9.056;2024-03-25T06:33:06;1.80;99.90
34147;DHT22;20423;49.448;9.056;2024-03-25T06:35:50;1.80;99.90
34147;DHT22;20423;49.448;9.056;2024-03-25T06:38:17;1.70;99.90
34147;DHT22;20423;49.448;9.056;2024-03-25T06:40:45;1.70;99.90
34147;DHT22;20423;49.448;9.056;2024-03-25T06:43:11;1.70;99.90
34147;DHT22;20423;49.448;9.056;2024-03-25T06:45:37;1.80;99.90
34147;DHT22;20423;49.448;9.056;2024-03-25T06:48:02;1.80;99.90
34147;DHT22;20423;49.448;9.056;2024-03-25T06:50:29;1.80;99.90
34147;DHT22;20423;49.448;9.056;2024-03-25T06:52:55;1.80;99.90
34147;DHT22;20423;49.448;9.056;2024-03-25T06:55:21;1.80;99.90
34147;DHT22;20423;49.448;9.056;2024-03-25T06:57:50;1.90;99.90
34147;DHT22;20423;49.448;9.056;2024-03-25T07:00:16;2.00;99.90
34147;DHT22;20423;49.448;9.056;2024-03-25T07:02:43;2.10;99.90
34147;DHT22;20423;49.448;9.056;2024-03-25T07:05:09;2.50;99.90
34147;DHT22;20423;49.448;9.056;2024-03-25T07:07:34;2.70;99.90
34147;DHT22;20423;49.448;9.056;2024-03-25T07:10:04;2.80;99.90
34147;DHT22;20423;49.448;9.056;2024-03-25T07:12:29;2.80;99.90
34147;DHT22;20423;49.448;9.056;2024-03-25T07:14:55;2.80;99.90
34147;DHT22;20423;49.448;9.056;2024-03-25T07:17:21;2.90;99.90
34147;DHT22;20423;49.448;9.056;2024-03-25T07:19:48;3.00;99.90
34147;DHT22;20423;49.448;9.056;2024-03-25T07:22:14;2.90;99.90
34147;DHT22;20423;49.448;9.056;2024-03-25T07:24:39;3.10;99.90
34147;DHT22;20423;49.448;9.056;2024-03-25T07:27:05;3.20;99.90
34147;DHT22;20423;49.448;9.056;2024-03-25T07:29:31;3.10;99.90
34147;DHT22;20423;49.448;9.056;2024-03-25T07:31:57;3.00;99.90
34147;DHT22;20423;49.448;9.056;2024-03-25T07:34:23;3.00;99.90
34147;DHT22;20423;49.448;9.056;2024-03-25T07:36:48;3.10;99.90
34147;DHT22;20423;49.448;9.056;2024-03-25T07:39:15;3.00;99.90
34147;DHT22;20423;49.448;9.056;2024-03-25T07:41:40;2.80;99.90
34147;DHT22;20423;49.448;9.056;2024-03-25T07:44:06;2.80;99.90
34147;DHT22;20423;49.448;9.056;2024-03-25T07:46:32;2.80;99.90
34147;DHT22;20423;49.448;9.056;2024-03-25T07:48:58;2.90;99.90
34147;DHT22;20423;49.448;9.056;2024-03-25T07:51:27;3.10;99.90
34147;DHT22;20423;49.448;9.056;2024-03-25T07:53:53;3.10;99.90
34147;DHT22;20423;49.448;9.056;2024-03-25T07:56:19;3.20;99.90
34147;DHT22;20423;49.448;9.056;2024-03-25T07:58:45;3.30;99.90
34147;DHT22;20423;49.448;9.056;2024-03-25T08:01:11;3.20;99.90
34147;DHT22;20423;49.448;9.056;2024-03-25T08:03:37;3.30;99.90
34147;DHT22;20423;49.448;9.056;2024-03-25T08:06:03;3.30;99.90
34147;DHT22;20423;49.448;9.056;2024-03-25T08:08:29;3.20;99.90
34147;DHT22;20423;49.448;9.056;2024-03-25T08:10:55;3.20;99.90
34147;DHT22;20423;49.448;9.056;2024-03-25T08:13:21;3.30;99.90
34147;DHT22;20423;49.448;9.056;2024-03-25T08:15:47;3.30;99.90
34147;DHT22;20423;49.448;9.056;2024-03-25T08:18:13;3.30;99.90
34147;DHT22;20423;49.448;9.056;2024-03-25T08:20:39;3.30;99.90
34147;DHT22;20423;49.448;9.056;2024-03-25T08:23:05;3.40;99.90
34147;DHT22;20423;49.448;9.056;2024-03-25T08:25:33;3.50;99.90
34147;DHT22;20423;49.448;9.056;2024-03-25T08:27:58;3.60;99.90
34147;DHT22;20423;49.448;9.056;2024-03-25T08:30:24;3.70;99.90
34147;DHT22;20423;49.448;9.056;2024-03-25T08:32:50;3.80;99.90
34147;DHT22;20423;49.448;9.056;2024-03-25T08:35:16;3.80;99.90
34147;DHT22;20423;49.448;9.056;2024-03-25T08:37:42;3.90;99.90
34147;DHT22;20423;49.448;9.056;2024-03-25T08:40:08;4.00;99.90
34147;DHT22;20423;49.448;9.056;2024-03-25T08:42:34;4.10;99.90
34147;DHT22;20423;49.448;9.056;2024-03-25T08:45:00;4.20;99.90
34147;DHT22;20423;49.448;9.056;2024-03-25T08:47:26;4.40;99.90
34147;DHT22;20423;49.448;9.056;2024-03-25T08:49:52;4.90;99.90
34147;DHT22;20423;49.448;9.056;2024-03-25T08:52:18;6.50;99.90
34147;DHT22;20423;49.448;9.056;2024-03-25T08:54:44;7.80;99.90
34147;DHT22;20423;49.448;9.056;2024-03-25T08:57:10;9.30;99.90
34147;DHT22;20423;49.448;9.056;2024-03-25T08:59:36;10.80;99.90
34147;DHT22;20423;49.448;9.056;2024-03-25T09:02:02;10.90;99.90
34147;DHT22;20423;49.448;9.056;2024-03-25T09:04:33;11.80;99.90
34147;DHT22;20423;49.448;9.056;2024-03-25T09:07:01;12.50;99.90
34147;DHT22;20423;49.448;9.056;2024-03-25T09:09:28;11.80;99.90
34147;DHT22;20423;49.448;9.056;2024-03-25T09:12:12;11.80;99.90
34147;DHT22;20423;49.448;9.056;2024-03-25T09:14:38;11.50;99.90
34147;DHT22;20423;49.448;9.056;2024-03-25T09:17:04;11.90;99.90
34147;DHT22;20423;49.448;9.056;2024-03-25T09:19:30;12.90;99.90
34147;DHT22;20423;49.448;9.056;2024-03-25T09:21:56;13.90;99.90
34147;DHT22;20423;49.448;9.056;2024-03-25T09:24:22;14.40;99.50
34147;DHT22;20423;49.448;9.056;2024-03-25T09:26:51;13.90;97.60
34147;DHT22;20423;49.448;9.056;2024-03-25T09:29:17;12.60;99.90
34147;DHT22;20423;49.448;9.056;2024-03-25T09:31:43;12.40;99.90
34147;DHT22;20423;49.448;9.056;2024-03-25T09:34:08;12.10;99.90
34147;DHT22;20423;49.448;9.056;2024-03-25T09:36:34;11.50;99.90
34147;DHT22;20423;49.448;9.056;2024-03-25T09:39:00;11.60;99.90
34147;DHT22;20423;49.448;9.056;2024-03-25T09:41:28;11.20;99.90
34147;DHT22;20423;49.448;9.056;2024-03-25T09:43:55;10.40;99.90
34147;DHT22;20423;49.448;9.056;2024-03-25T09:46:23;10.40;99.90
34147;DHT22;20423;49.448;9.056;2024-03-25T09:48:54;10.80;99.90
34147;DHT22;20423;49.448;9.056;2024-03-25T09:51:51;11.50;99.90
34147;DHT22;20423;49.448;9.056;2024-03-25T09:54:17;12.60;99.60
34147;DHT22;20423;49.448;9.056;2024-03-25T09:56:43;12.90;97.40
34147;DHT22;20423;49.448;9.056;2024-03-25T09:59:10;13.40;97.10
34147;DHT22;20423;49.448;9.056;2024-03-25T10:01:36;13.50;95.40
34147;DHT22;20423;49.448;9.056;2024-03-25T10:07:11;13.20;97.70
34147;DHT22;20423;49.448;9.056;2024-03-25T10:09:37;12.10;96.50
34147;DHT22;20423;49.448;9.056;2024-03-25T10:12:02;11.70;99.70
34147;DHT22;20423;49.448;9.056;2024-03-25T10:14:28;11.30;97.30
34147;DHT22;20423;49.448;9.056;2024-03-25T10:16:54;11.40;98.20
34147;DHT22;20423;49.448;9.056;2024-03-25T10:19:20;11.90;99.90
34147;DHT22;20423;49.448;9.056;2024-03-25T10:21:45;12.20;97.30
34147;DHT22;20423;49.448;9.056;2024-03-25T10:24:11;11.50;96.80
34147;DHT22;20423;49.448;9.056;2024-03-25T10:26:52;11.40;98.50
34147;DHT22;20423;49.448;9.056;2024-03-25T10:29:18;11.50;98.00
34147;DHT22;20423;49.448;9.056;2024-03-25T10:31:43;11.90;96.80
34147;DHT22;20423;49.448;9.056;2024-03-25T10:34:09;11.80;95.80
34147;DHT22;20423;49.448;9.056;2024-03-25T10:36:35;12.40;96.60
34147;DHT22;20423;49.448;9.056;2024-03-25T10:39:02;12.20;93.30
34147;DHT22;20423;49.448;9.056;2024-03-25T10:41:34;12.00;96.20
34147;DHT22;20423;49.448;9.056;2024-03-25T10:44:05;11.30;97.00
34147;DHT22;20423;49.448;9.056;2024-03-25T10:46:34;10.90;99.00
34147;DHT22;20423;49.448;9.056;2024-03-25T10:49:16;11.10;97.80
34147;DHT22;20423;49.448;9.056;2024-03-25T10:51:46;11.20;98.60
34147;DHT22;20423;49.448;9.056;2024-03-25T10:58:01;10.30;95.50
34147;DHT22;20423;49.448;9.056;2024-03-25T11:01:03;10.40;98.60
34147;DHT22;20423;49.448;9.056;2024-03-25T11:03:29;10.20;99.20
34147;DHT22;20423;49.448;9.056;2024-03-25T11:05:55;10.30;98.90
34147;DHT22;20423;49.448;9.056;2024-03-25T11:08:32;10.30;97.20
34147;DHT22;20423;49.448;9.056;2024-03-25T11:10:58;10.80;99.20
34147;DHT22;20423;49.448;9.056;2024-03-25T11:13:26;11.80;98.90
34147;DHT22;20423;49.448;9.056;2024-03-25T11:15:52;12.00;94.80
34147;DHT22;20423;49.448;9.056;2024-03-25T11:18:21;12.10;94.90
34147;DHT22;20423;49.448;9.056;2024-03-25T11:21:06;12.00;95.90
34147;DHT22;20423;49.448;9.056;2024-03-25T11:23:44;11.60;96.70
34147;DHT22;20423;49.448;9.056;2024-03-25T11:26:40;11.10;95.90
34147;DHT22;20423;49.448;9.056;2024-03-25T11:29:06;10.40;98.70
34147;DHT22;20423;49.448;9.056;2024-03-25T11:31:33;10.30;98.70
34147;DHT22;20423;49.448;9.056;2024-03-25T11:34:06;10.30;98.80
34147;DHT22;20423;49.448;9.056;2024-03-25T11:36:36;10.30;99.90
34147;DHT22;20423;49.448;9.056;2024-03-25T11:39:05;9.90;99.90
34147;DHT22;20423;49.448;9.056;2024-03-25T11:41:44;9.50;99.90
34147;DHT22;20423;49.448;9.056;2024-03-25T11:44:11;9.00;99.90
34147;DHT22;20423;49.448;9.056;2024-03-25T11:46:41;9.00;99.90
34147;DHT22;20423;49.448;9.056;2024-03-25T11:49:08;9.00;99.60
34147;DHT22;20423;49.448;9.056;2024-03-25T11:51:35;9.20;99.90
34147;DHT22;20423;49.448;9.056;2024-03-25T11:54:03;9.40;99.90
34147;DHT22;20423;49.448;9.056;2024-03-25T11:56:30;9.60;99.90
34147;DHT22;20423;49.448;9.056;2024-03-25T11:58:57;9.50;99.90
34147;DHT22;20423;49.448;9.056;2024-03-25T12:01:23;9.50;99.90
34147;DHT22;20423;49.448;9.056;2024-03-25T12:03:48;9.60;99.90
34147;DHT22;20423;49.448;9.056;2024-03-25T12:06:16;9.60;99.90
34147;DHT22;20423;49.448;9.056;2024-03-25T12:08:42;9.50;99.90
34147;DHT22;20423;49.448;9.056;2024-03-25T12:11:31;9.50;99.90
34147;DHT22;20423;49.448;9.056;2024-03-25T12:13:57;9.40;99.90
34147;DHT22;20423;49.448;9.056;2024-03-25T12:16:24;8.90;99.90
34147;DHT22;20423;49.448;9.056;2024-03-25T12:18:50;8.90;99.90
34147;DHT22;20423;49.448;9.056;2024-03-25T12:21:17;8.70;99.90
34147;DHT22;20423;49.448;9.056;2024-03-25T12:23:43;8.60;99.90
34147;DHT22;20423;49.448;9.056;2024-03-25T12:26:15;8.60;99.90
34147;DHT22;20423;49.448;9.056;2024-03-25T12:28:40;8.50;99.90
34147;DHT22;20423;49.448;9.056;2024-03-25T12:31:09;8.40;99.90
34147;DHT22;20423;49.448;9.056;2024-03-25T12:33:44;8.50;99.90
34147;DHT22;20423;49.448;9.056;2024-03-25T12:36:13;8.50;99.90
34147;DHT22;20423;49.448;9.056;2024-03-25T12:38:38;8.40;99.90
34147;DHT22;20423;49.448;9.056;2024-03-25T12:43:35;8.20;99.90
34147;DHT22;20423;49.448;9.056;2024-03-25T12:46:01;8.20;99.90
34147;DHT22;20423;49.448;9.056;2024-03-25T12:48:29;8.20;99.90
34147;DHT22;20423;49.448;9.056;2024-03-25T12:50:55;8.30;99.90
34147;DHT22;20423;49.448;9.056;2024-03-25T12:56:42;8.30;99.90
34147;DHT22;20423;49.448;9.056;2024-03-25T12:59:14;8.40;99.90
34147;DHT22;20423;49.448;9.056;2024-03-25T13:01:40;8.40;99.90
34147;DHT22;20423;49.448;9.056;2024-03-25T13:04:06;8.50;99.90
34147;DHT22;20423;49.448;9.056;2024-03-25T13:06:32;8.40;99.90
34147;DHT22;20423;49.448;9.056;2024-03-25T13:08:57;8.20;99.90
34147;DHT22;20423;49.448;9.056;2024-03-25T13:11:23;8.20;99.90
34147;DHT22;20423;49.448;9.056;2024-03-25T13:13:49;8.00;99.90
34147;DHT22;20423;49.448;9.056;2024-03-25T13:16:14;8.00;99.90
34147;DHT22;20423;49.448;9.056;2024-03-25T13:18:40;8.00;99.90
34147;DHT22;20423;49.448;9.056;2024-03-25T13:21:06;8.00;99.90
34147;DHT22;20423;49.448;9.056;2024-03-25T13:23:31;8.00;99.90
34147;DHT22;20423;49.448;9.056;2024-03-25T13:25:57;8.00;99.90
34147;DHT22;20423;49.448;9.056;2024-03-25T13:28:23;7.90;99.90
34147;DHT22;20423;49.448;9.056;2024-03-25T13:30:48;7.90;99.90
34147;DHT22;20423;49.448;9.056;2024-03-25T13:33:14;7.80;99.90
34147;DHT22;20423;49.448;9.056;2024-03-25T13:35:40;7.60;99.90
34147;DHT22;20423;49.448;9.056;2024-03-25T13:38:06;7.50;99.90
34147;DHT22;20423;49.448;9.056;2024-03-25T13:40:53;7.50;99.90
34147;DHT22;20423;49.448;9.056;2024-03-25T13:43:19;7.40;99.90
34147;DHT22;20423;49.448;9.056;2024-03-25T13:45:48;7.40;99.90
34147;DHT22;20423;49.448;9.056;2024-03-25T13:48:15;7.40;99.90
34147;DHT22;20423;49.448;9.056;2024-03-25T13:54:28;7.70;99.90
34147;DHT22;20423;49.448;9.056;2024-03-25T13:56:56;7.70;99.90
34147;DHT22;20423;49.448;9.056;2024-03-25T13:59:22;7.90;99.90
34147;DHT22;20423;49.448;9.056;2024-03-25T14:01:47;8.10;99.90
34147;DHT22;20423;49.448;9.056;2024-03-25T14:04:13;8.20;99.90
34147;DHT22;20423;49.448;9.056;2024-03-25T14:06:39;8.10;99.90
34147;DHT22;20423;49.448;9.056;2024-03-25T14:09:06;8.20;99.90
34147;DHT22;20423;49.448;9.056;2024-03-25T14:11:34;8.10;99.90
34147;DHT22;20423;49.448;9.056;2024-03-25T14:14:00;8.30;99.90
34147;DHT22;20423;49.448;9.056;2024-03-25T14:16:27;8.40;99.90
34147;DHT22;20423;49.448;9.056;2024-03-25T14:18:53;8.40;99.90
34147;DHT22;20423;49.448;9.056;2024-03-25T14:21:19;8.50;99.90
34147;DHT22;20423;49.448;9.056;2024-03-25T14:23:44;8.50;99.90
34147;DHT22;20423;49.448;9.056;2024-03-25T14:26:39;8.40;99.90
34147;DHT22;20423;49.448;9.056;2024-03-25T14:29:04;8.40;99.90
34147;DHT22;20423;49.448;9.056;2024-03-25T14:31:30;8.30;99.90
34147;DHT22;20423;49.448;9.056;2024-03-25T14:33:56;8.40;99.90
34147;DHT22;20423;49.448;9.056;2024-03-25T14:36:23;8.40;99.90
34147;DHT22;20423;49.448;9.056;2024-03-25T14:38:48;8.40;99.90
34147;DHT22;20423;49.448;9.056;2024-03-25T14:41:20;8.30;98.20
34147;DHT22;20423;49.448;9.056;2024-03-25T14:43:46;8.30;99.50
34147;DHT22;20423;49.448;9.056;2024-03-25T14:46:14;8.20;98.20
34147;DHT22;20423;49.448;9.056;2024-03-25T14:49:14;8.20;98.30
34147;DHT22;20423;49.448;9.056;2024-03-25T14:51:39;8.20;98.90
34147;DHT22;20423;49.448;9.056;2024-03-25T14:54:06;8.30;99.90
34147;DHT22;20423;49.448;9.056;2024-03-25T14:56:32;8.30;99.90
34147;DHT22;20423;49.448;9.056;2024-03-25T14:58:58;8.40;99.90
34147;DHT22;20423;49.448;9.056;2024-03-25T15:01:24;8.50;99.90
34147;DHT22;20423;49.448;9.056;2024-03-25T15:03:50;8.50;99.90
34147;DHT22;20423;49.448;9.056;2024-03-25T15:06:15;8.50;99.90
34147;DHT22;20423;49.448;9.056;2024-03-25T15:08:41;8.50;99.90
34147;DHT22;20423;49.448;9.056;2024-03-25T15:11:09;8.40;99.90
34147;DHT22;20423;49.448;9.056;2024-03-25T15:13:35;8.40;99.90
34147;DHT22;20423;49.448;9.056;2024-03-25T15:16:04;8.30;99.90
34147;DHT22;20423;49.448;9.056;2024-03-25T15:18:30;8.40;99.90
34147;DHT22;20423;49.448;9.056;2024-03-25T15:21:03;8.30;99.90
34147;DHT22;20423;49.448;9.056;2024-03-25T15:23:29;8.40;99.90
34147;DHT22;20423;49.448;9.056;2024-03-25T15:25:54;8.40;99.90
34147;DHT22;20423;49.448;9.056;2024-03-25T15:28:20;8.50;99.90
34147;DHT22;20423;49.448;9.056;2024-03-25T15:30:49;8.40;99.90
34147;DHT22;20423;49.448;9.056;2024-03-25T15:33:16;8.40;99.90
34147;DHT22;20423;49.448;9.056;2024-03-25T15:35:48;8.30;99.90
34147;DHT22;20423;49.448;9.056;2024-03-25T15:38:15;8.30;99.90
34147;DHT22;20423;49.448;9.056;2024-03-25T15:41:12;8.30;99.90
34147;DHT22;20423;49.448;9.056;2024-03-25T15:43:40;8.20;99.90
34147;DHT22;20423;49.448;9.056;2024-03-25T15:46:06;8.20;99.90
34147;DHT22;20423;49.448;9.056;2024-03-25T15:48:32;8.10;99.90
34147;DHT22;20423;49.448;9.056;2024-03-25T15:50:59;8.10;99.90
34147;DHT22;20423;49.448;9.056;2024-03-25T15:53:25;8.00;99.90
34147;DHT22;20423;49.448;9.056;2024-03-25T15:55:50;8.10;99.90
34147;DHT22;20423;49.448;9.056;2024-03-25T15:58:19;8.10;99.90
34147;DHT22;20423;49.448;9.056;2024-03-25T16:00:44;8.10;99.90
34147;DHT22;20423;49.448;9.056;2024-03-25T16:03:10;8.10;99.90
34147;DHT22;20423;49.448;9.056;2024-03-25T16:05:36;8.20;99.90
34147;DHT22;20423;49.448;9.056;2024-03-25T16:08:01;8.20;99.90
34147;DHT22;20423;49.448;9.056;2024-03-25T16:10:32;8.30;99.90